createdAt,value
2022-10-07T00:00:11.471Z,51.212124
2022-10-07T00:01:10.682Z,51.212173
2022-10-07T00:02:10.649Z,51.212036
2022-10-07T00:03:10.584Z,51.212067
2022-10-07T00:04:11.479Z,51.212135
2022-10-07T00:05:10.606Z,51.212177
2022-10-07T00:06:10.567Z,51.212326
2022-10-07T00:07:10.583Z,51.212177
2022-10-07T00:08:10.549Z,51.212070
2022-10-07T00:09:10.667Z,51.212120
2022-10-07T00:10:10.539Z,51.212101
2022-10-07T00:11:10.624Z,51.212185
2022-10-07T00:12:10.534Z,51.212009
2022-10-07T00:13:10.630Z,51.212086
2022-10-07T00:14:10.523Z,51.212116
2022-10-07T00:15:10.759Z,51.212143
2022-10-07T00:16:10.591Z,51.212055
2022-10-07T00:17:10.772Z,51.211994
2022-10-07T00:18:10.490Z,51.211845
2022-10-07T00:19:10.545Z,51.211979
2022-10-07T00:20:10.472Z,51.212364
2022-10-07T00:21:10.580Z,51.211994
2022-10-07T00:22:10.476Z,51.212471
2022-10-07T00:23:10.459Z,51.211906
2022-10-07T00:24:10.454Z,51.212074
2022-10-07T00:25:10.454Z,51.211781
2022-10-07T00:26:10.451Z,51.212070
2022-10-07T00:27:10.450Z,51.212040
2022-10-07T00:28:10.466Z,51.211998
2022-10-07T00:29:10.405Z,51.211895
2022-10-07T00:30:10.418Z,51.211945
2022-10-07T00:31:10.586Z,51.212025
2022-10-07T00:32:10.414Z,51.212288
2022-10-07T00:33:10.403Z,51.212200
2022-10-07T00:34:10.394Z,51.211868
2022-10-07T00:35:10.382Z,51.211853
2022-10-07T00:36:10.935Z,51.211758
2022-10-07T00:37:10.385Z,51.212025
2022-10-07T00:38:10.409Z,51.212196
2022-10-07T00:39:10.381Z,51.212032
2022-10-07T00:40:10.358Z,51.211880
2022-10-07T00:41:10.373Z,51.212002
2022-10-07T00:42:10.341Z,51.212269
2022-10-07T00:43:10.355Z,51.211979
2022-10-07T00:44:10.333Z,51.211914
2022-10-07T00:45:10.333Z,51.212097
2022-10-07T00:46:11.105Z,51.212074
2022-10-07T00:47:10.323Z,51.211994
2022-10-07T00:48:10.333Z,51.212185
2022-10-07T00:49:10.311Z,51.211895
2022-10-07T00:50:10.310Z,51.212193
2022-10-07T00:51:10.304Z,51.211948
2022-10-07T00:52:10.284Z,51.211967
2022-10-07T00:53:10.276Z,51.212254
2022-10-07T00:54:10.265Z,51.212139
2022-10-07T00:55:10.297Z,51.211948
2022-10-07T00:56:10.993Z,51.211922
2022-10-07T00:57:10.257Z,51.212128
2022-10-07T00:58:10.258Z,51.211960
2022-10-07T00:59:10.248Z,51.212009
2022-10-07T01:00:10.240Z,51.211975
2022-10-07T01:01:10.296Z,51.212032
2022-10-07T01:02:10.284Z,51.212059
2022-10-07T01:03:10.226Z,51.212032
2022-10-07T01:04:10.217Z,51.211971
2022-10-07T01:05:10.200Z,51.211983
2022-10-07T01:06:10.232Z,51.211967
2022-10-07T01:07:10.217Z,51.211876
2022-10-07T01:08:10.204Z,51.211979
2022-10-07T01:09:10.184Z,51.212006
2022-10-07T01:10:10.185Z,51.212082
2022-10-07T01:11:10.177Z,51.212093
2022-10-07T01:12:10.202Z,51.212128
2022-10-07T01:13:10.165Z,51.212116
2022-10-07T01:14:10.152Z,51.212036
2022-10-07T01:15:10.169Z,51.212048
2022-10-07T01:16:10.148Z,51.212196
2022-10-07T01:17:10.241Z,51.212070
2022-10-07T01:18:10.136Z,51.212032
2022-10-07T01:19:10.113Z,51.212166
2022-10-07T01:20:10.114Z,51.212135
2022-10-07T01:21:10.126Z,51.212120
2022-10-07T01:22:10.103Z,51.212151
2022-10-07T01:23:10.112Z,51.212086
2022-10-07T01:24:10.101Z,51.212055
2022-10-07T01:25:10.099Z,51.212029
2022-10-07T01:26:10.077Z,51.212029
2022-10-07T01:27:10.077Z,51.212063
2022-10-07T01:28:10.118Z,51.212013
2022-10-07T01:29:10.116Z,51.212116
2022-10-07T01:30:10.055Z,51.212204
2022-10-07T01:31:10.147Z,51.212177
2022-10-07T01:32:10.055Z,51.212212
2022-10-07T01:33:10.034Z,51.212101
2022-10-07T01:34:10.042Z,51.212090
2022-10-07T01:35:10.272Z,51.212135
2022-10-07T01:36:10.016Z,51.212055
2022-10-07T01:37:10.016Z,51.212044
2022-10-07T01:38:10.034Z,51.212086
2022-10-07T01:39:10.047Z,51.212139
2022-10-07T01:40:09.977Z,51.212154
2022-10-07T01:41:10.997Z,51.212124
2022-10-07T01:42:10.001Z,51.212177
2022-10-07T01:43:09.972Z,51.212070
2022-10-07T01:44:09.966Z,51.212017
2022-10-07T01:45:09.974Z,51.212029
2022-10-07T01:46:10.012Z,51.212032
2022-10-07T01:47:09.977Z,51.212013
2022-10-07T01:48:09.993Z,51.212090
2022-10-07T01:49:09.933Z,51.212082
2022-10-07T01:50:09.940Z,51.212048
2022-10-07T01:51:09.954Z,51.212002
2022-10-07T01:52:09.929Z,51.212029
2022-10-07T01:53:09.938Z,51.211933
2022-10-07T01:54:09.921Z,51.211975
2022-10-07T01:55:09.905Z,51.212078
2022-10-07T01:56:12.823Z,51.212017
2022-10-07T01:57:10.890Z,51.212002
2022-10-07T01:58:09.878Z,51.212040
2022-10-07T01:59:09.885Z,51.212048
2022-10-07T02:00:09.874Z,51.212105
2022-10-07T02:01:09.906Z,51.212170
2022-10-07T02:02:09.865Z,51.212017
2022-10-07T02:03:09.861Z,51.211933
2022-10-07T02:04:09.895Z,51.211998
2022-10-07T02:05:10.840Z,51.211937
2022-10-07T02:06:09.844Z,51.211853
2022-10-07T02:07:09.825Z,51.211849
2022-10-07T02:08:09.841Z,51.211964
2022-10-07T02:09:09.805Z,51.211777
2022-10-07T02:10:09.801Z,51.211830
2022-10-07T02:11:09.809Z,51.211781
2022-10-07T02:12:09.798Z,51.211704
2022-10-07T02:13:09.801Z,51.211834
2022-10-07T02:14:09.813Z,51.211716
2022-10-07T02:15:09.796Z,51.211906
2022-10-07T02:16:10.437Z,51.212166
2022-10-07T02:17:10.770Z,51.212273
2022-10-07T02:18:09.755Z,51.212219
2022-10-07T02:19:09.761Z,51.212151
2022-10-07T02:20:09.735Z,51.212112
2022-10-07T02:21:09.749Z,51.212059
2022-10-07T02:22:09.730Z,51.212059
2022-10-07T02:23:09.728Z,51.212070
2022-10-07T02:24:09.734Z,51.212105
2022-10-07T02:25:09.722Z,51.212135
2022-10-07T02:26:09.707Z,51.212009
2022-10-07T02:27:09.704Z,51.212032
2022-10-07T02:28:09.819Z,51.211964
2022-10-07T02:29:09.715Z,51.211998
2022-10-07T02:30:09.695Z,51.211849
2022-10-07T02:31:09.791Z,51.211994
2022-10-07T02:32:09.669Z,51.212132
2022-10-07T02:33:09.665Z,51.212105
2022-10-07T02:34:09.667Z,51.212200
2022-10-07T02:35:09.671Z,51.212173
2022-10-07T02:36:09.652Z,51.212139
2022-10-07T02:37:09.651Z,51.212082
2022-10-07T02:38:09.638Z,51.212070
2022-10-07T02:39:09.644Z,51.212257
2022-10-07T02:40:12.163Z,51.212212
2022-10-07T02:41:10.627Z,51.212177
2022-10-07T02:42:09.619Z,51.212154
2022-10-07T02:43:09.641Z,51.212181
2022-10-07T02:44:09.595Z,51.212147
2022-10-07T02:45:09.604Z,51.212147
2022-10-07T02:46:09.627Z,51.212208
2022-10-07T02:47:09.580Z,51.212177
2022-10-07T02:48:09.600Z,51.212132
2022-10-07T02:49:09.609Z,51.212181
2022-10-07T02:50:09.563Z,51.212170
2022-10-07T02:51:09.564Z,51.211998
2022-10-07T02:52:09.561Z,51.212105
2022-10-07T02:53:09.627Z,51.212158
2022-10-07T02:54:09.539Z,51.212257
2022-10-07T02:55:09.533Z,51.212116
2022-10-07T02:56:09.537Z,51.212032
2022-10-07T02:57:09.519Z,51.212116
2022-10-07T02:58:09.509Z,51.212135
2022-10-07T02:59:09.501Z,51.212101
2022-10-07T03:00:11.265Z,51.212017
2022-10-07T03:01:10.560Z,51.212044
2022-10-07T03:02:09.517Z,51.212025
2022-10-07T03:03:09.473Z,51.211861
2022-10-07T03:04:09.473Z,51.211876
2022-10-07T03:05:09.469Z,51.211956
2022-10-07T03:06:09.477Z,51.212128
2022-10-07T03:07:09.481Z,51.212116
2022-10-07T03:08:09.455Z,51.212063
2022-10-07T03:09:09.437Z,51.212170
2022-10-07T03:10:09.434Z,51.212246
2022-10-07T03:11:09.427Z,51.212170
2022-10-07T03:12:09.441Z,51.212135
2022-10-07T03:13:09.417Z,51.212040
2022-10-07T03:14:09.396Z,51.212070
2022-10-07T03:15:09.397Z,51.212219
2022-10-07T03:16:09.412Z,51.212151
2022-10-07T03:17:09.390Z,51.212170
2022-10-07T03:18:09.425Z,51.212143
2022-10-07T03:19:09.377Z,51.212093
2022-10-07T03:20:09.453Z,51.212120
2022-10-07T03:21:09.389Z,51.212132
2022-10-07T03:22:09.370Z,51.212105
2022-10-07T03:23:09.357Z,51.212055
2022-10-07T03:24:09.357Z,51.211998
2022-10-07T03:25:09.343Z,51.212036
2022-10-07T03:26:09.324Z,51.212017
2022-10-07T03:27:09.357Z,51.212124
2022-10-07T03:28:09.355Z,51.212082
2022-10-07T03:29:09.314Z,51.212101
2022-10-07T03:30:09.304Z,51.212048
2022-10-07T03:31:09.359Z,51.212040
2022-10-07T03:32:09.289Z,51.212105
2022-10-07T03:33:09.293Z,51.212132
2022-10-07T03:34:09.289Z,51.212044
2022-10-07T03:35:09.277Z,51.212036
2022-10-07T03:36:09.326Z,51.212013
2022-10-07T03:37:09.266Z,51.212078
2022-10-07T03:38:09.269Z,51.212120
2022-10-07T03:39:09.283Z,51.212143
2022-10-07T03:40:09.242Z,51.212185
2022-10-07T03:41:09.238Z,51.212231
2022-10-07T03:42:09.230Z,51.212204
2022-10-07T03:43:09.246Z,51.212151
2022-10-07T03:44:09.222Z,51.212029
2022-10-07T03:45:09.210Z,51.212109
2022-10-07T03:46:09.232Z,51.212151
2022-10-07T03:47:10.840Z,51.212105
2022-10-07T03:48:10.310Z,51.211998
2022-10-07T03:49:09.207Z,51.212044
2022-10-07T03:50:09.205Z,51.212013
2022-10-07T03:51:09.192Z,51.212090
2022-10-07T03:52:09.182Z,51.211971
2022-10-07T03:53:09.177Z,51.211952
2022-10-07T03:54:09.170Z,51.212090
2022-10-07T03:55:09.154Z,51.212116
2022-10-07T03:56:09.159Z,51.212250
2022-10-07T03:57:09.138Z,51.212124
2022-10-07T03:58:09.176Z,51.212086
2022-10-07T03:59:09.173Z,51.212090
2022-10-07T04:00:09.150Z,51.212044
2022-10-07T04:01:09.146Z,51.212055
2022-10-07T04:02:09.166Z,51.212013
2022-10-07T04:03:09.154Z,51.212063
2022-10-07T04:04:09.106Z,51.211994
2022-10-07T04:05:09.082Z,51.212093
2022-10-07T04:06:09.105Z,51.212086
2022-10-07T04:07:09.074Z,51.212128
2022-10-07T04:08:09.067Z,51.212147
2022-10-07T04:09:09.109Z,51.212128
2022-10-07T04:10:09.058Z,51.212009
2022-10-07T04:11:09.049Z,51.212090
2022-10-07T04:12:09.167Z,51.212097
2022-10-07T04:13:09.051Z,51.212189
2022-10-07T04:14:09.047Z,51.212032
2022-10-07T04:15:09.033Z,51.212078
2022-10-07T04:16:09.102Z,51.212215
2022-10-07T04:17:09.024Z,51.212128
2022-10-07T04:18:09.021Z,51.212254
2022-10-07T04:19:09.041Z,51.212208
2022-10-07T04:20:09.003Z,51.212196
2022-10-07T04:21:08.993Z,51.212181
2022-10-07T04:22:09.245Z,51.212154
2022-10-07T04:23:08.981Z,51.212185
2022-10-07T04:24:08.974Z,51.212250
2022-10-07T04:25:08.977Z,51.212212
2022-10-07T04:26:09.959Z,51.212124
2022-10-07T04:27:08.954Z,51.212177
2022-10-07T04:28:08.977Z,51.212173
2022-10-07T04:29:08.933Z,51.212074
2022-10-07T04:30:08.950Z,51.212162
2022-10-07T04:31:09.113Z,51.212158
2022-10-07T04:32:08.953Z,51.212166
2022-10-07T04:33:08.925Z,51.212158
2022-10-07T04:34:08.921Z,51.212196
2022-10-07T04:35:08.929Z,51.212078
2022-10-07T04:36:08.910Z,51.212109
2022-10-07T04:37:08.914Z,51.212173
2022-10-07T04:38:08.881Z,51.212234
2022-10-07T04:39:08.878Z,51.212246
2022-10-07T04:40:08.885Z,51.212204
2022-10-07T04:41:08.878Z,51.212215
2022-10-07T04:42:08.873Z,51.212120
2022-10-07T04:43:08.845Z,51.212139
2022-10-07T04:44:08.833Z,51.212093
2022-10-07T04:45:08.832Z,51.212109
2022-10-07T04:46:08.836Z,51.212132
2022-10-07T04:47:08.930Z,51.212162
2022-10-07T04:48:08.820Z,51.212158
2022-10-07T04:49:08.812Z,51.212162
2022-10-07T04:50:08.828Z,51.212177
2022-10-07T04:51:08.812Z,51.212200
2022-10-07T04:52:08.813Z,51.212154
2022-10-07T04:53:08.803Z,51.212166
2022-10-07T04:54:08.776Z,51.212158
2022-10-07T04:55:08.892Z,51.212154
2022-10-07T04:56:08.760Z,51.212097
2022-10-07T04:57:08.787Z,51.211998
2022-10-07T04:58:08.744Z,51.211983
2022-10-07T04:59:08.737Z,51.212048
2022-10-07T05:00:08.820Z,51.212162
2022-10-07T05:01:08.816Z,51.211933
2022-10-07T05:02:08.853Z,51.212189
2022-10-07T05:03:08.724Z,51.212151
2022-10-07T05:04:08.722Z,51.212074
2022-10-07T05:05:08.704Z,51.212013
2022-10-07T05:06:08.759Z,51.211830
2022-10-07T05:07:08.698Z,51.212021
2022-10-07T05:08:08.693Z,51.211819
2022-10-07T05:09:08.665Z,51.211803
2022-10-07T05:10:08.689Z,51.211803
2022-10-07T05:11:08.723Z,51.211880
2022-10-07T05:12:08.673Z,51.211967
2022-10-07T05:15:38.490Z,51.212036
2022-10-07T05:16:38.512Z,51.211796
2022-10-07T05:17:38.475Z,51.211872
2022-10-07T05:18:38.485Z,51.211868
2022-10-07T05:19:38.444Z,51.211956
2022-10-07T05:20:38.453Z,51.211910
2022-10-07T05:21:38.448Z,51.211895
2022-10-07T05:22:38.456Z,51.211922
2022-10-07T05:23:38.468Z,51.211941
2022-10-07T05:24:38.444Z,51.211994
2022-10-07T05:25:38.476Z,51.211895
2022-10-07T05:26:38.427Z,51.211948
2022-10-07T05:27:38.442Z,51.211891
2022-10-07T05:28:38.450Z,51.211765
2022-10-07T05:29:38.394Z,51.211773
2022-10-07T05:30:38.373Z,51.211876
2022-10-07T05:31:38.517Z,51.212013
2022-10-07T05:32:38.415Z,51.212158
2022-10-07T05:33:38.409Z,51.211903
2022-10-07T05:34:39.082Z,51.212044
2022-10-07T05:35:39.095Z,51.212002
2022-10-07T05:36:38.382Z,51.211998
2022-10-07T05:37:38.390Z,51.211922
2022-10-07T05:38:39.056Z,51.212116
2022-10-07T05:39:38.323Z,51.212063
2022-10-07T05:40:38.316Z,51.211937
2022-10-07T05:41:45.429Z,51.211945
2022-10-07T05:42:40.348Z,51.212086
2022-10-07T05:43:38.327Z,51.211922
2022-10-07T05:44:38.335Z,51.211666
2022-10-07T05:45:39.162Z,51.211750
2022-10-07T05:46:38.292Z,51.211945
2022-10-07T05:47:38.284Z,51.212078
2022-10-07T05:48:39.498Z,51.211903
2022-10-07T05:49:39.267Z,51.212040
2022-10-07T05:50:38.278Z,51.212189
2022-10-07T05:51:38.302Z,51.212193
2022-10-07T05:52:38.267Z,51.211880
2022-10-07T05:53:38.270Z,51.212044
2022-10-07T05:54:38.245Z,51.211948
2022-10-07T05:55:40.238Z,51.212143
2022-10-07T05:56:39.224Z,51.212109
2022-10-07T05:57:38.221Z,51.212074
2022-10-07T05:58:38.265Z,51.212101
2022-10-07T05:59:38.244Z,51.212105
2022-10-07T06:00:38.211Z,51.212086
2022-10-07T06:01:38.266Z,51.212112
2022-10-07T06:02:38.333Z,51.211983
2022-10-07T06:03:38.226Z,51.212181
2022-10-07T06:04:38.183Z,51.212162
2022-10-07T06:05:38.206Z,51.212074
2022-10-07T06:06:38.171Z,51.212002
2022-10-07T06:07:38.228Z,51.212074
2022-10-07T06:08:38.170Z,51.212170
2022-10-07T06:09:38.203Z,51.212158
2022-10-07T06:10:38.182Z,51.212044
2022-10-07T06:11:38.158Z,51.212040
2022-10-07T06:12:38.227Z,51.211990
2022-10-07T06:13:38.150Z,51.212036
2022-10-07T06:14:38.162Z,51.212032
2022-10-07T06:15:38.163Z,51.212177
2022-10-07T06:16:38.187Z,51.212105
2022-10-07T06:17:38.163Z,51.212101
2022-10-07T06:18:38.201Z,51.212101
2022-10-07T06:19:38.095Z,51.212173
2022-10-07T06:20:38.108Z,51.212082
2022-10-07T06:21:38.078Z,51.212105
2022-10-07T06:22:38.066Z,51.212074
2022-10-07T06:23:38.054Z,51.212120
2022-10-07T06:24:38.062Z,51.212120
2022-10-07T06:25:38.056Z,51.212059
2022-10-07T06:26:38.070Z,51.212048
2022-10-07T06:27:38.047Z,51.212135
2022-10-07T06:28:38.191Z,51.212013
2022-10-07T06:29:38.078Z,51.212101
2022-10-07T06:30:38.061Z,51.211826
2022-10-07T06:31:38.023Z,51.211945
2022-10-07T06:32:38.034Z,51.212120
2022-10-07T06:33:37.995Z,51.212070
2022-10-07T06:34:37.979Z,51.212063
2022-10-07T06:35:38.056Z,51.212059
2022-10-07T06:36:37.991Z,51.212093
2022-10-07T06:37:37.980Z,51.212128
2022-10-07T06:38:37.979Z,51.212105
2022-10-07T06:39:37.987Z,51.212059
2022-10-07T06:40:37.962Z,51.212036
2022-10-07T06:41:37.994Z,51.212055
2022-10-07T06:42:37.943Z,51.212093
2022-10-07T06:43:37.961Z,51.212143
2022-10-07T06:44:37.947Z,51.212132
2022-10-07T06:45:37.960Z,51.212090
2022-10-07T06:46:37.953Z,51.212044
2022-10-07T06:47:37.924Z,51.212151
2022-10-07T06:48:37.921Z,51.212208
2022-10-07T06:49:37.895Z,51.212223
2022-10-07T06:50:37.888Z,51.212181
2022-10-07T06:51:37.894Z,51.212231
2022-10-07T06:52:41.248Z,51.212292
2022-10-07T06:53:39.877Z,51.212482
2022-10-07T06:54:37.870Z,51.212250
2022-10-07T06:55:37.863Z,51.212280
2022-10-07T06:56:37.873Z,51.212284
2022-10-07T06:57:45.675Z,51.212090
2022-10-07T06:58:39.862Z,51.212143
2022-10-07T06:59:37.862Z,51.211964
2022-10-07T07:00:37.834Z,51.212090
2022-10-07T07:01:37.855Z,51.212154
2022-10-07T07:02:37.885Z,51.212086
2022-10-07T07:03:37.838Z,51.212196
2022-10-07T07:04:37.838Z,51.212284
2022-10-07T07:05:41.343Z,51.211983
2022-10-07T07:06:39.826Z,51.211983
2022-10-07T07:07:37.817Z,51.211960
2022-10-07T07:08:37.782Z,51.211952
2022-10-07T07:09:37.782Z,51.212002
2022-10-07T07:10:37.770Z,51.212059
2022-10-07T07:11:37.776Z,51.212200
2022-10-07T07:12:37.797Z,51.212234
2022-10-07T07:13:38.840Z,51.212109
2022-10-07T07:14:37.757Z,51.212074
2022-10-07T07:15:37.745Z,51.212044
2022-10-07T07:16:37.775Z,51.212105
2022-10-07T07:17:37.755Z,51.212097
2022-10-07T07:18:37.723Z,51.211849
2022-10-07T07:19:37.729Z,51.212044
2022-10-07T07:20:37.716Z,51.212124
2022-10-07T07:21:37.713Z,51.212025
2022-10-07T07:22:37.713Z,51.212029
2022-10-07T07:23:37.692Z,51.211937
2022-10-07T07:24:37.703Z,51.212067
2022-10-07T07:25:37.710Z,51.212040
2022-10-07T07:26:37.688Z,51.211956
2022-10-07T07:27:38.601Z,51.212036
2022-10-07T07:28:37.774Z,51.211983
2022-10-07T07:29:38.570Z,51.212044
2022-10-07T07:30:37.695Z,51.212090
2022-10-07T07:31:37.650Z,51.212090
2022-10-07T07:32:37.654Z,51.212093
2022-10-07T07:33:37.669Z,51.212044
2022-10-07T07:34:37.693Z,51.212036
2022-10-07T07:35:37.622Z,51.212105
2022-10-07T07:36:37.690Z,51.212193
2022-10-07T07:37:37.613Z,51.212002
2022-10-07T07:38:37.697Z,51.212009
2022-10-07T07:39:37.601Z,51.212101
2022-10-07T07:40:37.593Z,51.212040
2022-10-07T07:41:37.596Z,51.211914
2022-10-07T07:42:37.587Z,51.212105
2022-10-07T07:43:37.576Z,51.212082
2022-10-07T07:44:37.631Z,51.212154
2022-10-07T07:45:37.585Z,51.212170
2022-10-07T07:46:37.573Z,51.212139
2022-10-07T07:47:37.558Z,51.212112
2022-10-07T07:48:37.547Z,51.212189
2022-10-07T07:49:37.558Z,51.212139
2022-10-07T07:50:37.603Z,51.212135
2022-10-07T07:51:37.548Z,51.212158
2022-10-07T07:52:37.615Z,51.212208
2022-10-07T07:53:37.567Z,51.212196
2022-10-07T07:54:37.523Z,51.212009
2022-10-07T07:55:37.495Z,51.212029
2022-10-07T07:56:37.492Z,51.212086
2022-10-07T07:57:37.487Z,51.212090
2022-10-07T07:58:37.526Z,51.212112
2022-10-07T07:59:37.493Z,51.212101
2022-10-07T08:00:37.469Z,51.212093
2022-10-07T08:01:37.487Z,51.212040
2022-10-07T08:02:37.478Z,51.211971
2022-10-07T08:03:37.475Z,51.212063
2022-10-07T08:04:37.543Z,51.212139
2022-10-07T08:05:37.456Z,51.212151
2022-10-07T08:06:37.467Z,51.212185
2022-10-07T08:07:37.451Z,51.212158
2022-10-07T08:08:38.082Z,51.212208
2022-10-07T08:09:37.412Z,51.212147
2022-10-07T08:10:37.952Z,51.212170
2022-10-07T08:11:37.416Z,51.212124
2022-10-07T08:12:37.421Z,51.212090
2022-10-07T08:13:37.408Z,51.212139
2022-10-07T08:14:37.452Z,51.212132
2022-10-07T08:15:37.453Z,51.212120
2022-10-07T08:16:37.365Z,51.212147
2022-10-07T08:17:37.504Z,51.212124
2022-10-07T08:18:37.377Z,51.212097
2022-10-07T08:19:37.344Z,51.212185
2022-10-07T08:20:37.346Z,51.212208
2022-10-07T08:21:37.346Z,51.212219
2022-10-07T08:22:37.326Z,51.212090
2022-10-07T08:23:37.352Z,51.212154
2022-10-07T08:24:37.312Z,51.212177
2022-10-07T08:25:37.309Z,51.211735
2022-10-07T08:26:37.323Z,51.211838
2022-10-07T08:27:37.302Z,51.212101
2022-10-07T08:28:37.303Z,51.211945
2022-10-07T08:29:37.298Z,51.212082
2022-10-07T08:30:37.320Z,51.211899
2022-10-07T08:31:37.260Z,51.212032
2022-10-07T08:32:37.256Z,51.211948
2022-10-07T08:33:37.613Z,51.211979
2022-10-07T08:34:37.280Z,51.212002
2022-10-07T08:35:37.254Z,51.212021
2022-10-07T08:36:37.242Z,51.211926
2022-10-07T08:37:37.230Z,51.212006
2022-10-07T08:38:37.588Z,51.212090
2022-10-07T08:39:37.212Z,51.212132
2022-10-07T08:40:37.221Z,51.212029
2022-10-07T08:41:37.201Z,51.212002
2022-10-07T08:42:37.238Z,51.211952
2022-10-07T08:43:37.205Z,51.211941
2022-10-07T08:44:37.240Z,51.211830
2022-10-07T08:45:37.198Z,51.211868
2022-10-07T08:46:37.239Z,51.211926
2022-10-07T08:47:37.196Z,51.211979
2022-10-07T08:48:37.189Z,51.212097
2022-10-07T08:49:37.193Z,51.212147
2022-10-07T08:50:37.191Z,51.212109
2022-10-07T08:51:37.203Z,51.212025
2022-10-07T08:52:37.130Z,51.212196
2022-10-07T08:53:37.131Z,51.212112
2022-10-07T08:54:37.139Z,51.212151
2022-10-07T08:55:37.117Z,51.212021
2022-10-07T08:56:37.124Z,51.211990
2022-10-07T08:57:37.107Z,51.211926
2022-10-07T08:58:37.129Z,51.211929
2022-10-07T08:59:37.145Z,51.211929
2022-10-07T09:00:37.134Z,51.211796
2022-10-07T09:01:37.159Z,51.211849
2022-10-07T09:02:37.085Z,51.211849
2022-10-07T09:03:38.064Z,51.212097
2022-10-07T09:04:37.091Z,51.212196
2022-10-07T09:05:37.054Z,51.211998
2022-10-07T09:06:37.050Z,51.211887
2022-10-07T09:07:37.039Z,51.212105
2022-10-07T09:08:37.029Z,51.212257
2022-10-07T09:09:37.041Z,51.212086
2022-10-07T09:10:37.053Z,51.211952
2022-10-07T09:11:37.063Z,51.211773
2022-10-07T09:12:37.038Z,51.211872
2022-10-07T09:13:37.053Z,51.211956
2022-10-07T09:14:37.018Z,51.212101
2022-10-07T09:15:37.032Z,51.212200
2022-10-07T09:16:36.986Z,51.212238
2022-10-07T09:17:36.991Z,51.212059
2022-10-07T09:18:36.981Z,51.212166
2022-10-07T09:19:36.990Z,51.212246
2022-10-07T09:20:36.979Z,51.212193
2022-10-07T09:21:37.011Z,51.212151
2022-10-07T09:22:36.979Z,51.212093
2022-10-07T09:23:36.958Z,51.212135
2022-10-07T09:24:36.951Z,51.212173
2022-10-07T09:25:36.949Z,51.212208
2022-10-07T09:26:36.911Z,51.212238
2022-10-07T09:27:36.931Z,51.212051
2022-10-07T09:28:37.022Z,51.212128
2022-10-07T09:29:36.901Z,51.212246
2022-10-07T09:30:36.894Z,51.212402
2022-10-07T09:31:36.922Z,51.212383
2022-10-07T09:32:36.909Z,51.212284
2022-10-07T09:33:36.890Z,51.212254
2022-10-07T09:34:36.878Z,51.212208
2022-10-07T09:35:36.876Z,51.212219
2022-10-07T09:36:36.861Z,51.212315
2022-10-07T09:37:36.945Z,51.212299
2022-10-07T09:38:36.857Z,51.212196
2022-10-07T09:39:36.850Z,51.212173
2022-10-07T09:40:36.858Z,51.212124
2022-10-07T09:41:36.824Z,51.212139
2022-10-07T09:42:36.826Z,51.212139
2022-10-07T09:43:36.871Z,51.212048
2022-10-07T09:44:36.810Z,51.211987
2022-10-07T09:45:36.868Z,51.211937
2022-10-07T09:46:36.887Z,51.211876
2022-10-07T09:47:36.815Z,51.212006
2022-10-07T09:48:36.825Z,51.212082
2022-10-07T09:49:36.796Z,51.212078
2022-10-07T09:50:36.789Z,51.212093
2022-10-07T09:51:36.793Z,51.212101
2022-10-07T09:52:36.777Z,51.212196
2022-10-07T09:53:36.792Z,51.212154
2022-10-07T09:54:36.772Z,51.212162
2022-10-07T09:55:36.760Z,51.212093
2022-10-07T09:56:36.807Z,51.212063
2022-10-07T09:57:36.768Z,51.212044
2022-10-07T09:58:36.760Z,51.212006
2022-10-07T09:59:36.767Z,51.211956
2022-10-07T10:00:36.772Z,51.211918
2022-10-07T10:01:36.825Z,51.211998
2022-10-07T10:02:37.850Z,51.212067
2022-10-07T10:03:36.890Z,51.212173
2022-10-07T10:04:36.706Z,51.212185
2022-10-07T10:05:36.715Z,51.212070
2022-10-07T10:06:36.688Z,51.212135
2022-10-07T10:07:36.718Z,51.212097
2022-10-07T10:08:36.673Z,51.212082
2022-10-07T10:09:36.688Z,51.212086
2022-10-07T10:10:36.669Z,51.212040
2022-10-07T10:11:36.665Z,51.211983
2022-10-07T10:12:38.225Z,51.212021
2022-10-07T10:13:36.636Z,51.212116
2022-10-07T10:14:36.648Z,51.212219
2022-10-07T10:15:36.688Z,51.212181
2022-10-07T10:16:36.628Z,51.212109
2022-10-07T10:17:36.635Z,51.212086
2022-10-07T10:18:36.600Z,51.212086
2022-10-07T10:19:37.485Z,51.212109
2022-10-07T10:20:36.613Z,51.212078
2022-10-07T10:21:36.579Z,51.212097
2022-10-07T10:22:36.578Z,51.212139
2022-10-07T10:23:36.582Z,51.212135
2022-10-07T10:24:36.561Z,51.212242
2022-10-07T10:25:36.598Z,51.212154
2022-10-07T10:26:36.547Z,51.212166
2022-10-07T10:27:36.565Z,51.212246
2022-10-07T10:28:36.593Z,51.212177
2022-10-07T10:29:36.526Z,51.212231
2022-10-07T10:30:36.532Z,51.212276
2022-10-07T10:31:36.587Z,51.212276
2022-10-07T10:32:36.533Z,51.212288
2022-10-07T10:33:36.512Z,51.212193
2022-10-07T10:34:36.511Z,51.212215
2022-10-07T10:35:36.495Z,51.212238
2022-10-07T10:36:36.516Z,51.212177
2022-10-07T10:37:36.483Z,51.212261
2022-10-07T10:38:36.484Z,51.212231
2022-10-07T10:39:36.473Z,51.212238
2022-10-07T10:40:36.463Z,51.212223
2022-10-07T10:41:37.473Z,51.212238
2022-10-07T10:42:36.478Z,51.212284
2022-10-07T10:43:36.457Z,51.212299
2022-10-07T10:44:36.480Z,51.212265
2022-10-07T10:45:36.445Z,51.212189
2022-10-07T10:46:36.526Z,51.212269
2022-10-07T10:47:36.432Z,51.212254
2022-10-07T10:48:36.443Z,51.212337
2022-10-07T10:49:36.436Z,51.212212
2022-10-07T10:50:36.516Z,51.212223
2022-10-07T10:51:36.443Z,51.212193
2022-10-07T10:52:36.475Z,51.212234
2022-10-07T10:53:36.422Z,51.212219
2022-10-07T10:54:36.396Z,51.212292
2022-10-07T10:55:36.408Z,51.212162
2022-10-07T10:56:36.408Z,51.212132
2022-10-07T10:57:36.403Z,51.212147
2022-10-07T10:58:36.380Z,51.212193
2022-10-07T10:59:36.420Z,51.212177
2022-10-07T11:00:36.381Z,51.212204
2022-10-07T11:01:36.517Z,51.212170
2022-10-07T11:02:36.433Z,51.212070
2022-10-07T11:03:36.362Z,51.212032
2022-10-07T11:04:36.378Z,51.212231
2022-10-07T11:05:36.345Z,51.212154
2022-10-07T11:06:36.339Z,51.212124
2022-10-07T11:07:36.344Z,51.212219
2022-10-07T11:08:38.417Z,51.212452
2022-10-07T11:09:37.339Z,51.212234
2022-10-07T11:10:36.311Z,51.212105
2022-10-07T11:11:36.323Z,51.212009
2022-10-07T11:12:36.300Z,51.212189
2022-10-07T11:13:50.510Z,51.212109
2022-10-07T11:14:36.283Z,51.212082
2022-10-07T11:15:36.307Z,51.212154
2022-10-07T11:16:36.283Z,51.212238
2022-10-07T11:17:36.279Z,51.212219
2022-10-07T11:18:36.272Z,51.212234
2022-10-07T11:19:36.266Z,51.212166
2022-10-07T11:20:38.799Z,51.212128
2022-10-07T11:21:36.325Z,51.212196
2022-10-07T11:22:36.288Z,51.212143
2022-10-07T11:23:36.268Z,51.212101
2022-10-07T11:24:36.357Z,51.212181
2022-10-07T11:25:36.241Z,51.212208
2022-10-07T11:26:36.372Z,51.212231